sensor_id;sensor_type;location;lat;lon;timestamp;P1;durP1;ratioP1;P2;durP2;ratioP2
54823;SDS011;40724;53.196;5.980;2023-04-24T00:01:55;5.60;;;4.53;;
54823;SDS011;40724;53.196;5.980;2023-04-24T00:04:21;5.07;;;4.57;;
54823;SDS011;40724;53.196;5.980;2023-04-24T00:06:51;5.18;;;4.68;;
54823;SDS011;40724;53.196;5.980;2023-04-24T00:09:22;5.63;;;4.18;;
54823;SDS011;40724;53.196;5.980;2023-04-24T00:11:49;5.88;;;4.50;;
54823;SDS011;40724;53.196;5.980;2023-04-24T00:14:15;6.15;;;4.43;;
54823;SDS011;40724;53.196;5.980;2023-04-24T00:16:41;6.80;;;5.18;;
54823;SDS011;40724;53.196;5.980;2023-04-24T00:19:07;6.05;;;4.70;;
54823;SDS011;40724;53.196;5.980;2023-04-24T00:21:34;7.45;;;5.10;;
54823;SDS011;40724;53.196;5.980;2023-04-24T00:24:00;7.10;;;4.35;;
54823;SDS011;40724;53.196;5.980;2023-04-24T00:26:26;6.78;;;3.78;;
54823;SDS011;40724;53.196;5.980;2023-04-24T00:28:52;5.10;;;3.72;;
54823;SDS011;40724;53.196;5.980;2023-04-24T00:31:18;5.72;;;4.65;;
54823;SDS011;40724;53.196;5.980;2023-04-24T00:33:45;5.88;;;4.28;;
54823;SDS011;40724;53.196;5.980;2023-04-24T00:36:11;5.60;;;3.95;;
54823;SDS011;40724;53.196;5.980;2023-04-24T00:38:37;7.93;;;4.32;;
54823;SDS011;40724;53.196;5.980;2023-04-24T00:41:03;6.00;;;3.95;;
54823;SDS011;40724;53.196;5.980;2023-04-24T00:43:29;5.68;;;4.25;;
54823;SDS011;40724;53.196;5.980;2023-04-24T00:45:55;5.65;;;4.18;;
54823;SDS011;40724;53.196;5.980;2023-04-24T00:48:22;5.43;;;4.50;;
54823;SDS011;40724;53.196;5.980;2023-04-24T00:50:49;6.30;;;4.68;;
54823;SDS011;40724;53.196;5.980;2023-04-24T00:53:15;5.28;;;3.85;;
54823;SDS011;40724;53.196;5.980;2023-04-24T00:55:41;6.78;;;4.45;;
54823;SDS011;40724;53.196;5.980;2023-04-24T00:58:07;5.35;;;4.05;;
54823;SDS011;40724;53.196;5.980;2023-04-24T01:00:33;6.05;;;4.72;;
54823;SDS011;40724;53.196;5.980;2023-04-24T01:03:00;6.88;;;4.68;;
54823;SDS011;40724;53.196;5.980;2023-04-24T01:05:27;5.13;;;4.45;;
54823;SDS011;40724;53.196;5.980;2023-04-24T01:07:53;6.03;;;4.47;;
54823;SDS011;40724;53.196;5.980;2023-04-24T01:10:20;6.50;;;5.20;;
54823;SDS011;40724;53.196;5.980;2023-04-24T01:12:46;7.55;;;5.50;;
54823;SDS011;40724;53.196;5.980;2023-04-24T01:15:12;6.10;;;4.78;;
54823;SDS011;40724;53.196;5.980;2023-04-24T01:17:38;6.05;;;4.70;;
54823;SDS011;40724;53.196;5.980;2023-04-24T01:20:05;5.53;;;4.43;;
54823;SDS011;40724;53.196;5.980;2023-04-24T01:22:32;8.82;;;5.30;;
54823;SDS011;40724;53.196;5.980;2023-04-24T01:24:59;8.13;;;4.65;;
54823;SDS011;40724;53.196;5.980;2023-04-24T01:27:25;5.78;;;4.70;;
54823;SDS011;40724;53.196;5.980;2023-04-24T01:29:51;9.27;;;5.13;;
54823;SDS011;40724;53.196;5.980;2023-04-24T01:32:18;5.60;;;4.30;;
54823;SDS011;40724;53.196;5.980;2023-04-24T01:34:45;6.78;;;4.55;;
54823;SDS011;40724;53.196;5.980;2023-04-24T01:37:11;5.45;;;4.32;;
54823;SDS011;40724;53.196;5.980;2023-04-24T01:39:37;9.55;;;5.15;;
54823;SDS011;40724;53.196;5.980;2023-04-24T01:42:04;6.63;;;4.60;;
54823;SDS011;40724;53.196;5.980;2023-04-24T01:44:30;6.60;;;5.20;;
54823;SDS011;40724;53.196;5.980;2023-04-24T01:46:56;10.85;;;5.35;;
54823;SDS011;40724;53.196;5.980;2023-04-24T01:49:22;9.07;;;5.40;;
54823;SDS011;40724;53.196;5.980;2023-04-24T01:51:49;5.40;;;4.05;;
54823;SDS011;40724;53.196;5.980;2023-04-24T01:54:15;7.68;;;5.13;;
54823;SDS011;40724;53.196;5.980;2023-04-24T01:56:41;7.32;;;5.00;;
54823;SDS011;40724;53.196;5.980;2023-04-24T01:59:11;6.45;;;4.30;;
54823;SDS011;40724;53.196;5.980;2023-04-24T02:01:38;6.40;;;4.43;;
54823;SDS011;40724;53.196;5.980;2023-04-24T02:04:05;6.70;;;4.55;;
54823;SDS011;40724;53.196;5.980;2023-04-24T02:06:31;6.15;;;4.72;;
54823;SDS011;40724;53.196;5.980;2023-04-24T02:08:58;6.03;;;4.95;;
54823;SDS011;40724;53.196;5.980;2023-04-24T02:11:24;7.25;;;4.90;;
54823;SDS011;40724;53.196;5.980;2023-04-24T02:13:50;7.43;;;5.00;;
54823;SDS011;40724;53.196;5.980;2023-04-24T02:16:16;7.75;;;5.78;;
54823;SDS011;40724;53.196;5.980;2023-04-24T02:18:43;7.03;;;5.30;;
54823;SDS011;40724;53.196;5.980;2023-04-24T02:21:09;7.03;;;4.68;;
54823;SDS011;40724;53.196;5.980;2023-04-24T02:23:35;8.45;;;5.55;;
54823;SDS011;40724;53.196;5.980;2023-04-24T02:26:01;6.20;;;5.32;;
54823;SDS011;40724;53.196;5.980;2023-04-24T02:28:27;5.85;;;4.90;;
54823;SDS011;40724;53.196;5.980;2023-04-24T02:30:54;9.50;;;6.05;;
54823;SDS011;40724;53.196;5.980;2023-04-24T02:33:20;6.47;;;5.60;;
54823;SDS011;40724;53.196;5.980;2023-04-24T02:35:46;7.43;;;5.50;;
54823;SDS011;40724;53.196;5.980;2023-04-24T02:38:12;6.25;;;5.32;;
54823;SDS011;40724;53.196;5.980;2023-04-24T02:40:38;5.65;;;5.03;;
54823;SDS011;40724;53.196;5.980;2023-04-24T02:43:04;10.60;;;5.30;;
54823;SDS011;40724;53.196;5.980;2023-04-24T02:45:30;6.63;;;4.50;;
54823;SDS011;40724;53.196;5.980;2023-04-24T02:47:56;6.43;;;5.45;;
54823;SDS011;40724;53.196;5.980;2023-04-24T02:50:23;7.30;;;6.25;;
54823;SDS011;40724;53.196;5.980;2023-04-24T02:52:49;6.13;;;4.85;;
54823;SDS011;40724;53.196;5.980;2023-04-24T02:55:15;8.45;;;5.15;;
54823;SDS011;40724;53.196;5.980;2023-04-24T02:57:41;7.45;;;5.80;;
54823;SDS011;40724;53.196;5.980;2023-04-24T03:00:07;8.32;;;6.25;;
54823;SDS011;40724;53.196;5.980;2023-04-24T03:02:34;6.13;;;4.95;;
54823;SDS011;40724;53.196;5.980;2023-04-24T03:05:00;8.18;;;5.78;;
54823;SDS011;40724;53.196;5.980;2023-04-24T03:07:27;7.38;;;5.47;;
54823;SDS011;40724;53.196;5.980;2023-04-24T03:09:53;10.07;;;6.30;;
54823;SDS011;40724;53.196;5.980;2023-04-24T03:12:19;6.18;;;5.05;;
54823;SDS011;40724;53.196;5.980;2023-04-24T03:14:48;7.88;;;5.10;;
54823;SDS011;40724;53.196;5.980;2023-04-24T03:17:14;4.28;;;3.25;;
54823;SDS011;40724;53.196;5.980;2023-04-24T03:19:41;2.80;;;2.17;;
54823;SDS011;40724;53.196;5.980;2023-04-24T03:22:07;3.55;;;2.47;;
54823;SDS011;40724;53.196;5.980;2023-04-24T03:24:34;3.00;;;2.10;;
54823;SDS011;40724;53.196;5.980;2023-04-24T03:27:00;2.45;;;1.65;;
54823;SDS011;40724;53.196;5.980;2023-04-24T03:29:26;2.50;;;1.67;;
54823;SDS011;40724;53.196;5.980;2023-04-24T03:31:52;3.13;;;1.60;;
54823;SDS011;40724;53.196;5.980;2023-04-24T03:34:18;1.90;;;1.48;;
54823;SDS011;40724;53.196;5.980;2023-04-24T03:36:45;2.10;;;1.17;;
54823;SDS011;40724;53.196;5.980;2023-04-24T03:39:12;1.95;;;1.00;;
54823;SDS011;40724;53.196;5.980;2023-04-24T03:41:39;1.25;;;1.00;;
54823;SDS011;40724;53.196;5.980;2023-04-24T03:44:05;1.70;;;1.02;;
54823;SDS011;40724;53.196;5.980;2023-04-24T03:46:31;1.88;;;1.15;;
54823;SDS011;40724;53.196;5.980;2023-04-24T03:48:57;2.70;;;1.10;;
54823;SDS011;40724;53.196;5.980;2023-04-24T03:51:23;1.52;;;1.10;;
54823;SDS011;40724;53.196;5.980;2023-04-24T03:53:50;1.50;;;1.00;;
54823;SDS011;40724;53.196;5.980;2023-04-24T03:56:16;1.08;;;0.80;;
54823;SDS011;40724;53.196;5.980;2023-04-24T03:58:42;2.33;;;1.02;;
54823;SDS011;40724;53.196;5.980;2023-04-24T04:01:09;1.75;;;1.02;;
54823;SDS011;40724;53.196;5.980;2023-04-24T04:03:36;2.83;;;1.15;;
54823;SDS011;40724;53.196;5.980;2023-04-24T04:06:03;2.00;;;1.50;;
54823;SDS011;40724;53.196;5.980;2023-04-24T04:08:29;3.30;;;1.80;;
54823;SDS011;40724;53.196;5.980;2023-04-24T04:10:55;2.03;;;1.42;;
54823;SDS011;40724;53.196;5.980;2023-04-24T04:13:21;3.13;;;1.52;;
54823;SDS011;40724;53.196;5.980;2023-04-24T04:15:47;2.60;;;1.83;;
54823;SDS011;40724;53.196;5.980;2023-04-24T04:18:13;2.33;;;1.52;;
54823;SDS011;40724;53.196;5.980;2023-04-24T04:20:40;4.13;;;1.90;;
54823;SDS011;40724;53.196;5.980;2023-04-24T04:23:06;2.75;;;1.45;;
54823;SDS011;40724;53.196;5.980;2023-04-24T04:25:33;1.92;;;1.42;;
54823;SDS011;40724;53.196;5.980;2023-04-24T04:27:59;3.42;;;1.88;;
54823;SDS011;40724;53.196;5.980;2023-04-24T04:30:25;5.65;;;2.55;;
54823;SDS011;40724;53.196;5.980;2023-04-24T04:32:51;6.55;;;2.13;;
54823;SDS011;40724;53.196;5.980;2023-04-24T04:35:17;6.93;;;2.45;;
54823;SDS011;40724;53.196;5.980;2023-04-24T04:37:44;3.33;;;2.70;;
54823;SDS011;40724;53.196;5.980;2023-04-24T04:40:10;4.28;;;2.22;;
54823;SDS011;40724;53.196;5.980;2023-04-24T04:42:36;4.40;;;3.35;;
54823;SDS011;40724;53.196;5.980;2023-04-24T04:45:07;5.40;;;3.80;;
54823;SDS011;40724;53.196;5.980;2023-04-24T04:47:36;5.85;;;4.07;;
54823;SDS011;40724;53.196;5.980;2023-04-24T04:50:03;6.18;;;3.60;;
54823;SDS011;40724;53.196;5.980;2023-04-24T04:52:30;5.55;;;3.70;;
54823;SDS011;40724;53.196;5.980;2023-04-24T04:54:56;5.35;;;3.58;;
54823;SDS011;40724;53.196;5.980;2023-04-24T04:57:22;5.18;;;3.95;;
54823;SDS011;40724;53.196;5.980;2023-04-24T04:59:49;7.38;;;3.85;;
54823;SDS011;40724;53.196;5.980;2023-04-24T05:02:15;5.25;;;3.53;;
54823;SDS011;40724;53.196;5.980;2023-04-24T05:04:41;5.22;;;3.78;;
54823;SDS011;40724;53.196;5.980;2023-04-24T05:07:07;4.90;;;3.63;;
54823;SDS011;40724;53.196;5.980;2023-04-24T05:09:33;5.60;;;3.85;;
54823;SDS011;40724;53.196;5.980;2023-04-24T05:11:59;8.18;;;3.95;;
54823;SDS011;40724;53.196;5.980;2023-04-24T05:14:27;6.30;;;3.60;;
54823;SDS011;40724;53.196;5.980;2023-04-24T05:16:53;8.43;;;4.55;;
54823;SDS011;40724;53.196;5.980;2023-04-24T05:19:19;9.65;;;4.70;;
54823;SDS011;40724;53.196;5.980;2023-04-24T05:21:45;6.00;;;4.78;;
54823;SDS011;40724;53.196;5.980;2023-04-24T05:24:11;7.97;;;5.38;;
54823;SDS011;40724;53.196;5.980;2023-04-24T05:26:37;6.38;;;4.78;;
54823;SDS011;40724;53.196;5.980;2023-04-24T05:29:04;6.45;;;4.38;;
54823;SDS011;40724;53.196;5.980;2023-04-24T05:31:30;4.80;;;4.03;;
54823;SDS011;40724;53.196;5.980;2023-04-24T05:33:56;4.63;;;3.17;;
54823;SDS011;40724;53.196;5.980;2023-04-24T05:36:22;3.50;;;2.72;;
54823;SDS011;40724;53.196;5.980;2023-04-24T05:38:48;5.40;;;3.22;;
54823;SDS011;40724;53.196;5.980;2023-04-24T05:41:14;7.05;;;3.05;;
54823;SDS011;40724;53.196;5.980;2023-04-24T05:43:40;4.35;;;3.10;;
54823;SDS011;40724;53.196;5.980;2023-04-24T05:46:07;4.32;;;2.95;;
54823;SDS011;40724;53.196;5.980;2023-04-24T05:48:33;4.60;;;2.97;;
54823;SDS011;40724;53.196;5.980;2023-04-24T05:50:59;5.47;;;2.63;;
54823;SDS011;40724;53.196;5.980;2023-04-24T05:53:25;3.25;;;2.10;;
54823;SDS011;40724;53.196;5.980;2023-04-24T05:55:52;2.72;;;1.65;;
54823;SDS011;40724;53.196;5.980;2023-04-24T05:58:18;4.60;;;2.10;;
54823;SDS011;40724;53.196;5.980;2023-04-24T06:00:44;4.28;;;1.70;;
54823;SDS011;40724;53.196;5.980;2023-04-24T06:03:11;3.85;;;1.88;;
54823;SDS011;40724;53.196;5.980;2023-04-24T06:05:38;5.25;;;2.10;;
54823;SDS011;40724;53.196;5.980;2023-04-24T06:08:04;2.95;;;1.65;;
54823;SDS011;40724;53.196;5.980;2023-04-24T06:10:31;2.53;;;1.40;;
54823;SDS011;40724;53.196;5.980;2023-04-24T06:12:57;5.95;;;1.58;;
54823;SDS011;40724;53.196;5.980;2023-04-24T06:15:27;3.15;;;1.30;;
54823;SDS011;40724;53.196;5.980;2023-04-24T06:17:53;5.18;;;2.05;;
54823;SDS011;40724;53.196;5.980;2023-04-24T06:20:19;8.98;;;2.45;;
54823;SDS011;40724;53.196;5.980;2023-04-24T06:22:45;3.40;;;2.10;;
54823;SDS011;40724;53.196;5.980;2023-04-24T06:25:11;2.65;;;1.95;;
54823;SDS011;40724;53.196;5.980;2023-04-24T06:27:37;3.35;;;2.15;;
54823;SDS011;40724;53.196;5.980;2023-04-24T06:30:04;6.85;;;2.42;;
54823;SDS011;40724;53.196;5.980;2023-04-24T06:32:30;2.75;;;2.13;;
54823;SDS011;40724;53.196;5.980;2023-04-24T06:34:56;5.68;;;2.08;;
54823;SDS011;40724;53.196;5.980;2023-04-24T06:37:22;6.00;;;2.47;;
54823;SDS011;40724;53.196;5.980;2023-04-24T06:39:49;4.90;;;2.75;;
54823;SDS011;40724;53.196;5.980;2023-04-24T06:42:15;7.47;;;2.35;;
54823;SDS011;40724;53.196;5.980;2023-04-24T06:44:41;5.70;;;2.53;;
54823;SDS011;40724;53.196;5.980;2023-04-24T06:47:08;5.72;;;2.72;;
54823;SDS011;40724;53.196;5.980;2023-04-24T06:49:35;5.38;;;2.78;;
54823;SDS011;40724;53.196;5.980;2023-04-24T06:52:01;6.25;;;3.03;;
54823;SDS011;40724;53.196;5.980;2023-04-24T06:54:28;7.30;;;3.53;;
54823;SDS011;40724;53.196;5.980;2023-04-24T06:56:54;8.13;;;4.38;;
54823;SDS011;40724;53.196;5.980;2023-04-24T06:59:20;10.38;;;4.88;;
54823;SDS011;40724;53.196;5.980;2023-04-24T07:01:47;10.45;;;6.15;;
54823;SDS011;40724;53.196;5.980;2023-04-24T07:04:13;11.80;;;6.85;;
54823;SDS011;40724;53.196;5.980;2023-04-24T07:06:39;14.38;;;8.18;;
54823;SDS011;40724;53.196;5.980;2023-04-24T07:09:05;14.18;;;9.00;;
54823;SDS011;40724;53.196;5.980;2023-04-24T07:11:34;16.08;;;9.85;;
54823;SDS011;40724;53.196;5.980;2023-04-24T07:14:00;14.55;;;9.05;;
54823;SDS011;40724;53.196;5.980;2023-04-24T07:16:26;14.15;;;8.90;;
54823;SDS011;40724;53.196;5.980;2023-04-24T07:18:52;14.55;;;8.50;;
54823;SDS011;40724;53.196;5.980;2023-04-24T07:21:18;12.93;;;7.45;;
54823;SDS011;40724;53.196;5.980;2023-04-24T07:23:44;13.90;;;8.52;;
54823;SDS011;40724;53.196;5.980;2023-04-24T07:26:10;14.20;;;7.78;;
54823;SDS011;40724;53.196;5.980;2023-04-24T07:28:36;13.13;;;7.15;;
54823;SDS011;40724;53.196;5.980;2023-04-24T07:31:02;14.50;;;8.88;;
54823;SDS011;40724;53.196;5.980;2023-04-24T07:33:28;16.25;;;9.32;;
54823;SDS011;40724;53.196;5.980;2023-04-24T07:35:54;10.75;;;8.50;;
54823;SDS011;40724;53.196;5.980;2023-04-24T07:38:20;16.63;;;10.25;;
54823;SDS011;40724;53.196;5.980;2023-04-24T07:40:47;16.33;;;9.98;;
54823;SDS011;40724;53.196;5.980;2023-04-24T07:43:13;15.65;;;9.75;;
54823;SDS011;40724;53.196;5.980;2023-04-24T07:45:40;13.43;;;9.23;;
54823;SDS011;40724;53.196;5.980;2023-04-24T07:48:06;20.27;;;11.00;;
54823;SDS011;40724;53.196;5.980;2023-04-24T07:50:34;17.17;;;10.07;;
54823;SDS011;40724;53.196;5.980;2023-04-24T07:53:02;22.83;;;11.93;;
54823;SDS011;40724;53.196;5.980;2023-04-24T07:55:28;15.90;;;10.35;;
54823;SDS011;40724;53.196;5.980;2023-04-24T07:57:54;14.50;;;9.70;;
54823;SDS011;40724;53.196;5.980;2023-04-24T08:00:20;14.98;;;10.02;;
54823;SDS011;40724;53.196;5.980;2023-04-24T08:02:47;15.68;;;9.63;;
54823;SDS011;40724;53.196;5.980;2023-04-24T08:05:13;11.45;;;7.75;;
54823;SDS011;40724;53.196;5.980;2023-04-24T08:07:39;12.63;;;7.60;;
54823;SDS011;40724;53.196;5.980;2023-04-24T08:10:08;16.08;;;8.38;;
54823;SDS011;40724;53.196;5.980;2023-04-24T08:12:35;11.48;;;7.05;;
54823;SDS011;40724;53.196;5.980;2023-04-24T08:15:01;12.57;;;7.32;;
54823;SDS011;40724;53.196;5.980;2023-04-24T08:17:27;10.80;;;6.90;;
54823;SDS011;40724;53.196;5.980;2023-04-24T08:19:54;11.88;;;6.20;;
54823;SDS011;40724;53.196;5.980;2023-04-24T08:22:26;12.68;;;6.32;;
54823;SDS011;40724;53.196;5.980;2023-04-24T08:24:52;11.32;;;6.15;;
54823;SDS011;40724;53.196;5.980;2023-04-24T08:27:18;9.32;;;6.70;;
54823;SDS011;40724;53.196;5.980;2023-04-24T08:29:45;8.90;;;7.05;;
54823;SDS011;40724;53.196;5.980;2023-04-24T08:32:11;8.10;;;5.75;;
54823;SDS011;40724;53.196;5.980;2023-04-24T08:34:37;9.18;;;5.55;;
54823;SDS011;40724;53.196;5.980;2023-04-24T08:37:03;13.00;;;6.45;;
54823;SDS011;40724;53.196;5.980;2023-04-24T08:39:29;10.25;;;6.30;;
54823;SDS011;40724;53.196;5.980;2023-04-24T08:41:55;13.32;;;6.03;;
54823;SDS011;40724;53.196;5.980;2023-04-24T08:44:23;11.05;;;5.68;;
54823;SDS011;40724;53.196;5.980;2023-04-24T08:46:49;8.15;;;5.18;;
54823;SDS011;40724;53.196;5.980;2023-04-24T08:49:17;10.10;;;6.45;;
54823;SDS011;40724;53.196;5.980;2023-04-24T08:51:44;9.75;;;6.05;;
54823;SDS011;40724;53.196;5.980;2023-04-24T08:54:12;12.02;;;6.43;;
54823;SDS011;40724;53.196;5.980;2023-04-24T08:56:39;12.95;;;5.30;;
54823;SDS011;40724;53.196;5.980;2023-04-24T08:59:06;13.32;;;6.32;;
54823;SDS011;40724;53.196;5.980;2023-04-24T09:01:32;14.90;;;6.85;;
54823;SDS011;40724;53.196;5.980;2023-04-24T09:04:00;10.02;;;4.68;;
54823;SDS011;40724;53.196;5.980;2023-04-24T09:06:28;14.88;;;5.85;;
54823;SDS011;40724;53.196;5.980;2023-04-24T09:08:55;8.05;;;5.07;;
54823;SDS011;40724;53.196;5.980;2023-04-24T09:11:23;10.27;;;4.38;;
54823;SDS011;40724;53.196;5.980;2023-04-24T09:13:50;9.90;;;3.33;;
54823;SDS011;40724;53.196;5.980;2023-04-24T09:16:16;9.63;;;3.90;;
54823;SDS011;40724;53.196;5.980;2023-04-24T09:18:43;6.75;;;3.58;;
54823;SDS011;40724;53.196;5.980;2023-04-24T09:21:09;10.60;;;3.65;;
54823;SDS011;40724;53.196;5.980;2023-04-24T09:23:36;9.32;;;4.20;;
54823;SDS011;40724;53.196;5.980;2023-04-24T09:26:02;8.15;;;3.72;;
54823;SDS011;40724;53.196;5.980;2023-04-24T09:28:32;8.43;;;4.40;;
54823;SDS011;40724;53.196;5.980;2023-04-24T09:31:11;8.50;;;4.43;;
54823;SDS011;40724;53.196;5.980;2023-04-24T09:33:39;12.95;;;4.55;;
54823;SDS011;40724;53.196;5.980;2023-04-24T09:36:05;9.48;;;3.65;;
54823;SDS011;40724;53.196;5.980;2023-04-24T09:41:07;8.32;;;4.38;;
54823;SDS011;40724;53.196;5.980;2023-04-24T09:43:34;8.60;;;4.13;;
54823;SDS011;40724;53.196;5.980;2023-04-24T09:46:05;7.75;;;3.83;;
54823;SDS011;40724;53.196;5.980;2023-04-24T09:48:37;10.27;;;4.32;;
54823;SDS011;40724;53.196;5.980;2023-04-24T09:51:04;11.70;;;3.20;;
54823;SDS011;40724;53.196;5.980;2023-04-24T09:53:37;13.60;;;3.65;;
54823;SDS011;40724;53.196;5.980;2023-04-24T09:56:09;6.13;;;3.03;;
54823;SDS011;40724;53.196;5.980;2023-04-24T09:58:38;9.02;;;3.22;;
54823;SDS011;40724;53.196;5.980;2023-04-24T10:01:04;9.43;;;3.38;;
54823;SDS011;40724;53.196;5.980;2023-04-24T10:03:31;6.68;;;3.05;;
54823;SDS011;40724;53.196;5.980;2023-04-24T10:05:59;10.90;;;3.42;;
54823;SDS011;40724;53.196;5.980;2023-04-24T10:08:25;8.48;;;2.83;;
54823;SDS011;40724;53.196;5.980;2023-04-24T10:10:52;11.40;;;3.15;;
54823;SDS011;40724;53.196;5.980;2023-04-24T10:13:18;11.57;;;3.45;;
54823;SDS011;40724;53.196;5.980;2023-04-24T10:15:44;7.15;;;3.13;;
54823;SDS011;40724;53.196;5.980;2023-04-24T10:18:11;11.60;;;3.72;;
54823;SDS011;40724;53.196;5.980;2023-04-24T10:20:38;8.65;;;2.15;;
54823;SDS011;40724;53.196;5.980;2023-04-24T10:23:05;7.57;;;3.08;;
54823;SDS011;40724;53.196;5.980;2023-04-24T10:25:32;6.57;;;3.05;;
54823;SDS011;40724;53.196;5.980;2023-04-24T10:27:59;8.00;;;2.95;;
54823;SDS011;40724;53.196;5.980;2023-04-24T10:30:26;6.05;;;2.53;;
54823;SDS011;40724;53.196;5.980;2023-04-24T10:32:53;4.78;;;2.70;;
54823;SDS011;40724;53.196;5.980;2023-04-24T10:35:19;8.43;;;3.33;;
54823;SDS011;40724;53.196;5.980;2023-04-24T10:37:51;8.07;;;2.75;;
54823;SDS011;40724;53.196;5.980;2023-04-24T10:40:18;6.93;;;2.60;;
54823;SDS011;40724;53.196;5.980;2023-04-24T10:42:48;8.60;;;3.00;;
54823;SDS011;40724;53.196;5.980;2023-04-24T10:45:17;8.18;;;3.00;;
54823;SDS011;40724;53.196;5.980;2023-04-24T10:47:53;7.07;;;2.63;;
54823;SDS011;40724;53.196;5.980;2023-04-24T10:50:19;3.70;;;2.10;;
54823;SDS011;40724;53.196;5.980;2023-04-24T10:52:46;5.65;;;2.33;;
54823;SDS011;40724;53.196;5.980;2023-04-24T10:55:13;5.88;;;2.25;;
54823;SDS011;40724;53.196;5.980;2023-04-24T10:57:40;11.40;;;2.92;;
54823;SDS011;40724;53.196;5.980;2023-04-24T11:00:26;7.18;;;2.30;;
54823;SDS011;40724;53.196;5.980;2023-04-24T11:02:52;7.43;;;2.75;;
54823;SDS011;40724;53.196;5.980;2023-04-24T11:05:22;4.53;;;2.38;;
54823;SDS011;40724;53.196;5.980;2023-04-24T11:10:39;3.92;;;1.90;;
54823;SDS011;40724;53.196;5.980;2023-04-24T11:13:05;7.05;;;1.80;;
54823;SDS011;40724;53.196;5.980;2023-04-24T11:15:31;6.40;;;2.03;;
54823;SDS011;40724;53.196;5.980;2023-04-24T11:17:57;6.10;;;2.20;;
54823;SDS011;40724;53.196;5.980;2023-04-24T11:20:23;6.85;;;2.25;;
54823;SDS011;40724;53.196;5.980;2023-04-24T11:22:52;5.05;;;1.80;;
54823;SDS011;40724;53.196;5.980;2023-04-24T11:25:22;5.53;;;2.10;;
54823;SDS011;40724;53.196;5.980;2023-04-24T11:27:50;3.90;;;1.90;;
54823;SDS011;40724;53.196;5.980;2023-04-24T11:30:19;4.78;;;2.33;;
54823;SDS011;40724;53.196;5.980;2023-04-24T11:32:52;6.55;;;1.98;;
54823;SDS011;40724;53.196;5.980;2023-04-24T11:35:19;3.60;;;1.30;;
54823;SDS011;40724;53.196;5.980;2023-04-24T11:37:53;7.80;;;1.60;;
54823;SDS011;40724;53.196;5.980;2023-04-24T11:40:21;3.70;;;1.40;;
54823;SDS011;40724;53.196;5.980;2023-04-24T11:42:53;10.15;;;2.40;;
54823;SDS011;40724;53.196;5.980;2023-04-24T11:45:24;5.07;;;1.65;;
54823;SDS011;40724;53.196;5.980;2023-04-24T11:47:51;3.50;;;1.40;;
54823;SDS011;40724;53.196;5.980;2023-04-24T11:50:18;8.52;;;2.22;;
54823;SDS011;40724;53.196;5.980;2023-04-24T11:52:48;3.20;;;1.60;;
54823;SDS011;40724;53.196;5.980;2023-04-24T11:57:44;4.45;;;1.65;;
54823;SDS011;40724;53.196;5.980;2023-04-24T12:02:43;4.97;;;2.08;;
54823;SDS011;40724;53.196;5.980;2023-04-24T12:05:18;7.20;;;2.08;;
54823;SDS011;40724;53.196;5.980;2023-04-24T12:07:45;8.98;;;2.78;;
54823;SDS011;40724;53.196;5.980;2023-04-24T12:10:11;5.13;;;1.77;;
54823;SDS011;40724;53.196;5.980;2023-04-24T12:12:37;6.95;;;1.67;;
54823;SDS011;40724;53.196;5.980;2023-04-24T12:15:07;4.43;;;1.83;;
54823;SDS011;40724;53.196;5.980;2023-04-24T12:17:34;8.68;;;2.00;;
54823;SDS011;40724;53.196;5.980;2023-04-24T12:20:05;5.00;;;2.05;;
54823;SDS011;40724;53.196;5.980;2023-04-24T12:25:16;3.15;;;1.13;;
54823;SDS011;40724;53.196;5.980;2023-04-24T12:27:43;2.65;;;1.15;;
54823;SDS011;40724;53.196;5.980;2023-04-24T12:30:13;3.20;;;1.02;;
54823;SDS011;40724;53.196;5.980;2023-04-24T12:32:47;3.00;;;0.98;;
54823;SDS011;40724;53.196;5.980;2023-04-24T12:35:18;3.63;;;1.30;;
54823;SDS011;40724;53.196;5.980;2023-04-24T12:37:45;6.63;;;1.33;;
54823;SDS011;40724;53.196;5.980;2023-04-24T12:40:12;2.60;;;1.20;;
54823;SDS011;40724;53.196;5.980;2023-04-24T12:42:48;4.40;;;1.30;;
54823;SDS011;40724;53.196;5.980;2023-04-24T12:45:15;2.35;;;1.00;;
54823;SDS011;40724;53.196;5.980;2023-04-24T12:47:42;2.05;;;1.02;;
54823;SDS011;40724;53.196;5.980;2023-04-24T12:50:09;7.78;;;1.85;;
54823;SDS011;40724;53.196;5.980;2023-04-24T12:52:36;6.35;;;1.45;;
54823;SDS011;40724;53.196;5.980;2023-04-24T12:55:02;5.43;;;1.40;;
54823;SDS011;40724;53.196;5.980;2023-04-24T12:57:30;1.70;;;0.85;;
54823;SDS011;40724;53.196;5.980;2023-04-24T12:59:57;2.92;;;1.45;;
54823;SDS011;40724;53.196;5.980;2023-04-24T13:02:27;6.43;;;1.50;;
54823;SDS011;40724;53.196;5.980;2023-04-24T13:04:57;2.80;;;1.05;;
54823;SDS011;40724;53.196;5.980;2023-04-24T13:07:25;5.82;;;1.42;;
54823;SDS011;40724;53.196;5.980;2023-04-24T13:09:51;2.50;;;1.45;;
54823;SDS011;40724;53.196;5.980;2023-04-24T13:12:18;3.33;;;1.27;;
54823;SDS011;40724;53.196;5.980;2023-04-24T13:14:45;4.82;;;2.22;;
54823;SDS011;40724;53.196;5.980;2023-04-24T13:17:11;5.78;;;2.03;;
54823;SDS011;40724;53.196;5.980;2023-04-24T13:19:38;6.65;;;2.70;;
54823;SDS011;40724;53.196;5.980;2023-04-24T13:22:05;6.60;;;2.45;;
54823;SDS011;40724;53.196;5.980;2023-04-24T13:24:31;4.22;;;2.40;;
54823;SDS011;40724;53.196;5.980;2023-04-24T13:26:58;7.47;;;2.78;;
54823;SDS011;40724;53.196;5.980;2023-04-24T13:29:25;6.18;;;2.20;;
54823;SDS011;40724;53.196;5.980;2023-04-24T13:31:51;6.05;;;2.20;;
54823;SDS011;40724;53.196;5.980;2023-04-24T13:34:19;11.02;;;2.70;;
54823;SDS011;40724;53.196;5.980;2023-04-24T13:36:45;9.93;;;3.10;;
54823;SDS011;40724;53.196;5.980;2023-04-24T13:39:11;9.25;;;2.70;;
54823;SDS011;40724;53.196;5.980;2023-04-24T13:41:37;8.73;;;3.15;;
54823;SDS011;40724;53.196;5.980;2023-04-24T13:44:04;9.55;;;3.00;;
54823;SDS011;40724;53.196;5.980;2023-04-24T13:46:31;7.20;;;2.72;;
54823;SDS011;40724;53.196;5.980;2023-04-24T13:48:57;6.93;;;2.70;;
54823;SDS011;40724;53.196;5.980;2023-04-24T13:51:23;4.97;;;1.75;;
54823;SDS011;40724;53.196;5.980;2023-04-24T13:53:52;4.07;;;1.35;;
54823;SDS011;40724;53.196;5.980;2023-04-24T13:56:19;4.13;;;1.98;;
54823;SDS011;40724;53.196;5.980;2023-04-24T13:58:45;4.80;;;2.40;;
54823;SDS011;40724;53.196;5.980;2023-04-24T14:01:11;6.43;;;2.28;;
54823;SDS011;40724;53.196;5.980;2023-04-24T14:03:38;6.93;;;2.00;;
54823;SDS011;40724;53.196;5.980;2023-04-24T14:06:04;8.82;;;3.40;;
54823;SDS011;40724;53.196;5.980;2023-04-24T14:08:31;6.78;;;2.28;;
54823;SDS011;40724;53.196;5.980;2023-04-24T14:10:57;12.02;;;2.33;;
54823;SDS011;40724;53.196;5.980;2023-04-24T14:13:23;8.13;;;2.92;;
54823;SDS011;40724;53.196;5.980;2023-04-24T14:15:50;7.30;;;3.40;;
54823;SDS011;40724;53.196;5.980;2023-04-24T14:18:17;12.23;;;3.35;;
54823;SDS011;40724;53.196;5.980;2023-04-24T14:20:44;8.18;;;3.08;;
54823;SDS011;40724;53.196;5.980;2023-04-24T14:23:10;8.15;;;3.55;;
54823;SDS011;40724;53.196;5.980;2023-04-24T14:25:36;6.82;;;3.38;;
54823;SDS011;40724;53.196;5.980;2023-04-24T14:28:02;8.02;;;3.13;;
54823;SDS011;40724;53.196;5.980;2023-04-24T14:30:28;5.80;;;3.45;;
54823;SDS011;40724;53.196;5.980;2023-04-24T14:32:55;17.98;;;5.10;;
54823;SDS011;40724;53.196;5.980;2023-04-24T14:35:21;15.32;;;4.80;;
54823;SDS011;40724;53.196;5.980;2023-04-24T14:37:48;9.32;;;3.53;;
54823;SDS011;40724;53.196;5.980;2023-04-24T14:40:14;14.32;;;4.25;;
54823;SDS011;40724;53.196;5.980;2023-04-24T14:42:40;10.25;;;4.13;;
54823;SDS011;40724;53.196;5.980;2023-04-24T14:45:07;9.95;;;3.33;;
54823;SDS011;40724;53.196;5.980;2023-04-24T14:47:33;16.52;;;4.78;;
54823;SDS011;40724;53.196;5.980;2023-04-24T14:49:59;8.52;;;3.70;;
54823;SDS011;40724;53.196;5.980;2023-04-24T14:52:25;16.15;;;3.70;;
54823;SDS011;40724;53.196;5.980;2023-04-24T14:54:51;10.02;;;4.40;;
54823;SDS011;40724;53.196;5.980;2023-04-24T14:57:17;7.82;;;3.70;;